Time;durP1;ratioP1;P1;durP2;ratioP2;P2;SDS_P1;SDS_P2;PMS_P1;PMS_P2;Temp;Humidity;BMP_temperature;BMP_pressure;BME280_temperature;BME280_humidity;BME280_pressure;Samples;Min_cycle;Max_cycle;Signal;HPM_P1;HPM_P2
2023/07/06 00:01:25;;;;;;;;;;;;;;;17.19;79.80;93039.44;2038674;69;20052;-78
2023/07/06 00:03:54;;;;;;;;;;;;;;;17.03;80.64;93033.06;2038547;70;20059;-78
2023/07/06 00:06:20;;;;;;;;;;;;;;;16.85;81.70;93032.28;2038686;70;20048;-78
2023/07/06 00:08:47;;;;;;;;;;;;;;;17.00;80.63;93023.00;2038612;70;20075;-77
2023/07/06 00:11:13;;;;;;;;;;;;;;;16.98;81.23;93026.47;2038638;70;20066;-79
2023/07/06 00:13:45;;;;;;;;;;;;;;;17.13;80.59;93029.91;2038406;69;20491;-78
2023/07/06 00:16:11;;;;;;;;;;;;;;;17.22;79.80;93020.34;2038572;69;20114;-78
2023/07/06 00:18:39;;;;;;;;;;;;;;;17.07;80.39;93023.97;2038318;70;20063;-79
2023/07/06 00:21:05;;;;;;;;;;;;;;;16.95;80.56;93024.19;2040764;70;20108;-78
2023/07/06 00:23:32;;;;;;;;;;;;;;;16.81;82.41;93018.63;2038771;70;20426;-79
2023/07/06 00:25:58;;;;;;;;;;;;;;;16.91;81.05;93013.41;2039294;69;20165;-78
2023/07/06 00:28:28;;;;;;;;;;;;;;;17.11;80.27;93022.03;2039077;70;20499;-79
2023/07/06 00:30:57;;;;;;;;;;;;;;;17.18;79.84;93018.06;2039061;70;20099;-77
2023/07/06 00:33:24;;;;;;;;;;;;;;;17.16;79.54;93011.56;2038967;70;20052;-78
2023/07/06 00:35:50;;;;;;;;;;;;;;;17.11;79.64;93015.63;2038255;69;20059;-78
2023/07/06 00:38:18;;;;;;;;;;;;;;;17.14;79.39;93014.31;2039006;70;20149;-78
2023/07/06 00:40:46;;;;;;;;;;;;;;;17.06;79.86;93014.72;2039103;70;20491;-78
2023/07/06 00:43:15;;;;;;;;;;;;;;;17.14;79.55;93014.31;2038985;70;20056;-79
2023/07/06 00:45:42;;;;;;;;;;;;;;;17.32;78.04;93017.94;2038812;70;20087;-76
2023/07/06 00:48:20;;;;;;;;;;;;;;;17.20;78.96;93012.47;2039115;70;20467;-77
2023/07/06 00:50:49;;;;;;;;;;;;;;;16.81;81.47;93012.22;2038727;70;20066;-77
2023/07/06 00:53:16;;;;;;;;;;;;;;;16.89;81.81;93010.44;2039046;70;20052;-77
2023/07/06 00:55:44;;;;;;;;;;;;;;;16.96;80.90;93012.19;2038460;70;20426;-78
2023/07/06 00:58:24;;;;;;;;;;;;;;;17.05;80.65;93018.94;2038935;70;20067;-77
2023/07/06 01:00:52;;;;;;;;;;;;;;;17.09;78.13;93013.44;2038339;69;20056;-77
2023/07/06 01:03:19;;;;;;;;;;;;;;;16.98;81.06;93015.09;2041088;70;20076;-77
2023/07/06 01:05:50;;;;;;;;;;;;;;;16.97;81.09;93007.94;2038294;69;20149;-78
2023/07/06 01:08:18;;;;;;;;;;;;;;;16.39;84.16;93008.97;2038591;69;20126;-78
2023/07/06 01:10:43;;;;;;;;;;;;;;;16.14;86.87;92995.78;2039051;70;20086;-79
2023/07/06 01:13:09;;;;;;;;;;;;;;;16.29;85.92;92995.03;2038968;70;20088;-78
2023/07/06 01:15:38;;;;;;;;;;;;;;;16.36;85.65;92990.38;2038282;70;20060;-78
2023/07/06 01:18:07;;;;;;;;;;;;;;;16.31;84.58;92998.00;2038977;70;20419;-78
2023/07/06 01:20:38;;;;;;;;;;;;;;;16.51;83.50;92975.41;2038563;70;20207;-78
2023/07/06 01:23:13;;;;;;;;;;;;;;;16.65;83.29;92990.22;2041250;69;20120;-78
2023/07/06 01:25:49;;;;;;;;;;;;;;;16.91;81.91;92998.44;2041155;70;20091;-78
2023/07/06 01:28:17;;;;;;;;;;;;;;;16.82;82.14;92991.69;2041237;70;20059;-78
2023/07/06 01:30:52;;;;;;;;;;;;;;;16.87;82.10;92987.63;2038976;70;20420;-78
2023/07/06 01:33:26;;;;;;;;;;;;;;;16.97;81.48;92988.03;2038855;70;20055;-78
2023/07/06 01:35:53;;;;;;;;;;;;;;;16.98;80.50;92986.66;2038868;69;20075;-78
2023/07/06 01:38:23;;;;;;;;;;;;;;;17.04;78.76;92986.16;2039061;70;20075;-77
2023/07/06 01:40:49;;;;;;;;;;;;;;;16.97;81.07;92985.19;2039146;70;20064;-77
2023/07/06 01:43:16;;;;;;;;;;;;;;;16.90;81.29;92994.13;2038679;70;20533;-77
2023/07/06 01:45:46;;;;;;;;;;;;;;;16.92;80.61;92991.38;2038581;70;20052;-77
2023/07/06 01:48:13;;;;;;;;;;;;;;;16.91;80.39;92987.06;2038648;70;20138;-77
2023/07/06 01:51:10;;;;;;;;;;;;;;;16.89;80.92;92987.69;2039167;70;20805;-77
2023/07/06 01:53:43;;;;;;;;;;;;;;;16.59;82.03;92987.13;2041291;69;20515;-77
2023/07/06 01:56:11;;;;;;;;;;;;;;;16.47;83.58;92993.00;2039176;69;20108;-77
2023/07/06 01:58:52;;;;;;;;;;;;;;;16.58;83.40;92984.91;2039347;70;20063;-78
2023/07/06 02:01:26;;;;;;;;;;;;;;;16.62;83.49;92991.50;2038369;70;20586;-78
2023/07/06 02:03:53;;;;;;;;;;;;;;;16.74;82.30;92989.22;2035507;70;20052;-78
2023/07/06 02:06:19;;;;;;;;;;;;;;;16.85;80.95;92989.63;2038754;70;20064;-79
2023/07/06 02:08:46;;;;;;;;;;;;;;;16.84;81.38;92996.72;2041057;70;20084;-78
2023/07/06 02:11:19;;;;;;;;;;;;;;;16.76;81.90;92988.56;2038991;69;20060;-78
2023/07/06 02:13:45;;;;;;;;;;;;;;;16.95;81.39;92987.97;2039202;70;20071;-77
2023/07/06 02:16:11;;;;;;;;;;;;;;;16.98;81.07;92994.47;2038985;69;20052;-78
2023/07/06 02:18:39;;;;;;;;;;;;;;;17.05;80.66;92989.78;2038697;70;20552;-78
2023/07/06 02:21:05;;;;;;;;;;;;;;;17.09;79.83;92987.06;2038774;69;20074;-78
2023/07/06 02:23:32;;;;;;;;;;;;;;;17.05;79.99;92984.81;2038953;69;20055;-78
2023/07/06 02:25:59;;;;;;;;;;;;;;;16.95;80.71;92982.28;2038959;69;20167;-78
2023/07/06 02:28:25;;;;;;;;;;;;;;;16.97;80.91;92987.31;2039063;70;20087;-78
2023/07/06 02:30:55;;;;;;;;;;;;;;;16.36;84.26;92987.53;2041218;70;20380;-80
2023/07/06 02:33:21;;;;;;;;;;;;;;;16.07;86.95;92972.06;2039361;69;20088;-80
2023/07/06 02:35:46;;;;;;;;;;;;;;;16.50;83.21;92971.84;2041406;70;20173;-80
2023/07/06 02:38:13;;;;;;;;;;;;;;;16.25;84.31;92975.72;2039339;70;20489;-80
2023/07/06 02:40:39;;;;;;;;;;;;;;;16.48;83.07;92973.84;2041547;70;20434;-80
2023/07/06 02:43:05;;;;;;;;;;;;;;;16.25;83.86;92980.66;2039297;70;20058;-80
2023/07/06 02:45:33;;;;;;;;;;;;;;;16.36;84.05;92979.00;2039191;70;20048;-80
2023/07/06 02:47:58;;;;;;;;;;;;;;;16.06;85.55;92981.22;2039416;70;20063;-78
2023/07/06 02:50:24;;;;;;;;;;;;;;;16.16;86.02;92976.00;2054797;69;20456;-78
2023/07/06 02:52:49;;;;;;;;;;;;;;;16.22;84.87;92977.00;2054804;69;20052;-79
2023/07/06 02:55:16;;;;;;;;;;;;;;;15.94;85.63;92981.41;2039264;69;20484;-79
2023/07/06 02:57:43;;;;;;;;;;;;;;;16.31;84.37;92969.56;2039574;70;20056;-77
2023/07/06 03:00:14;;;;;;;;;;;;;;;16.12;84.75;92978.66;2041690;70;20084;-79
2023/07/06 03:02:40;;;;;;;;;;;;;;;16.37;83.04;92969.84;2039384;70;20098;-78
2023/07/06 03:05:05;;;;;;;;;;;;;;;16.12;84.72;92972.97;2041240;70;20092;-79
2023/07/06 03:07:34;;;;;;;;;;;;;;;16.25;83.92;92970.03;2039105;69;20056;-79
2023/07/06 03:10:04;;;;;;;;;;;;;;;16.30;83.20;92968.09;2038603;70;20080;-79
2023/07/06 03:12:37;;;;;;;;;;;;;;;16.11;84.71;92963.00;2038624;70;20122;-79
2023/07/06 03:15:05;;;;;;;;;;;;;;;16.42;82.30;92970.75;2039291;70;20052;-78
2023/07/06 03:17:31;;;;;;;;;;;;;;;16.53;82.26;92969.78;2038673;70;20048;-79
2023/07/06 03:19:56;;;;;;;;;;;;;;;16.57;81.66;92972.09;2041268;70;20047;-78
2023/07/06 03:22:22;;;;;;;;;;;;;;;16.51;81.93;92972.56;2054755;69;20087;-78
2023/07/06 03:24:49;;;;;;;;;;;;;;;16.60;81.55;92967.97;2038642;69;20510;-79
2023/07/06 03:27:14;;;;;;;;;;;;;;;16.39;81.91;92981.28;2039119;70;20143;-79
2023/07/06 03:29:40;;;;;;;;;;;;;;;16.44;82.16;92979.34;2039247;70;20143;-78
2023/07/06 03:32:06;;;;;;;;;;;;;;;16.62;80.12;92985.81;2039186;69;20230;-78
2023/07/06 03:34:32;;;;;;;;;;;;;;;16.42;81.53;92976.44;2038615;70;20480;-77
2023/07/06 03:36:58;;;;;;;;;;;;;;;16.14;83.36;92981.59;2041340;69;20138;-79
2023/07/06 03:39:23;;;;;;;;;;;;;;;16.25;83.00;92983.50;2041333;70;20214;-78
2023/07/06 03:41:49;;;;;;;;;;;;;;;16.49;81.97;92984.59;2041395;70;20142;-79
2023/07/06 03:44:16;;;;;;;;;;;;;;;16.64;80.70;92982.34;2038576;69;20067;-78
2023/07/06 03:46:42;;;;;;;;;;;;;;;16.60;80.58;92987.84;2039280;69;20059;-79
2023/07/06 03:49:11;;;;;;;;;;;;;;;16.64;80.24;92990.88;2039764;69;20044;-79
2023/07/06 03:51:37;;;;;;;;;;;;;;;16.63;80.21;92995.84;2039603;70;20134;-79
2023/07/06 03:54:06;;;;;;;;;;;;;;;16.68;80.34;92996.75;2041392;69;20052;-79
2023/07/06 03:56:32;;;;;;;;;;;;;;;16.75;79.56;92998.47;2039300;69;20055;-79
2023/07/06 03:58:57;;;;;;;;;;;;;;;16.73;79.83;92995.56;2039074;70;20048;-79
2023/07/06 04:01:27;;;;;;;;;;;;;;;16.75;80.03;92990.69;2039150;70;20103;-79
2023/07/06 04:03:53;;;;;;;;;;;;;;;16.81;79.71;92993.03;2039006;70;20110;-78
2023/07/06 04:06:18;;;;;;;;;;;;;;;16.80;80.31;92988.75;2038743;70;20456;-79
2023/07/06 04:08:44;;;;;;;;;;;;;;;16.81;80.36;92995.88;2039158;70;20056;-78
2023/07/06 04:11:10;;;;;;;;;;;;;;;16.82;80.63;92993.78;2039109;70;20052;-79
2023/07/06 04:13:35;;;;;;;;;;;;;;;16.82;80.48;92991.69;2039022;70;20161;-79
2023/07/06 04:16:01;;;;;;;;;;;;;;;16.90;80.23;92994.13;2039215;69;20138;-79
2023/07/06 04:18:26;;;;;;;;;;;;;;;16.60;81.18;92993.53;2041121;70;20103;-79
2023/07/06 04:20:53;;;;;;;;;;;;;;;16.13;83.96;92994.34;2039045;69;20052;-79
2023/07/06 04:23:18;;;;;;;;;;;;;;;15.50;87.59;92986.47;2039124;70;20060;-80
2023/07/06 04:25:44;;;;;;;;;;;;;;;15.93;86.02;92991.28;2038970;70;20118;-79
2023/07/06 04:28:13;;;;;;;;;;;;;;;16.36;83.09;92991.09;2038884;69;20092;-79
2023/07/06 04:30:40;;;;;;;;;;;;;;;16.59;81.32;93001.34;2038912;70;20056;-81
2023/07/06 04:33:06;;;;;;;;;;;;;;;16.45;81.28;93000.72;2041497;70;20056;-77
2023/07/06 04:35:32;;;;;;;;;;;;;;;16.16;81.91;92999.44;2039000;70;20081;-79
2023/07/06 04:37:59;;;;;;;;;;;;;;;16.46;81.04;93002.19;2039102;70;20508;-79
2023/07/06 04:40:26;;;;;;;;;;;;;;;16.57;80.79;92994.81;2039107;69;20054;-78
2023/07/06 04:42:52;;;;;;;;;;;;;;;15.87;83.41;92994.59;2039075;70;20079;-78
2023/07/06 04:45:18;;;;;;;;;;;;;;;15.92;84.20;92995.50;2038411;69;20142;-78
2023/07/06 04:47:44;;;;;;;;;;;;;;;16.21;83.32;92989.72;2039044;70;20617;-79
2023/07/06 04:50:12;;;;;;;;;;;;;;;16.01;84.46;92986.00;2038945;70;20056;-79
2023/07/06 04:52:38;;;;;;;;;;;;;;;15.85;85.04;92982.41;2039120;70;20460;-79
2023/07/06 04:55:08;;;;;;;;;;;;;;;16.04;84.12;92986.81;2039041;70;20483;-79
2023/07/06 04:57:34;;;;;;;;;;;;;;;15.95;85.24;92991.41;2039059;70;20083;-79
2023/07/06 05:00:11;;;;;;;;;;;;;;;16.30;83.20;92996.50;2039144;70;20048;-79
2023/07/06 05:02:37;;;;;;;;;;;;;;;16.07;83.38;92997.59;2039102;70;20055;-79
2023/07/06 05:05:02;;;;;;;;;;;;;;;16.12;83.95;92996.41;2038949;69;20096;-79
2023/07/06 05:07:30;;;;;;;;;;;;;;;16.43;81.65;93004.19;2038933;70;20501;-79
2023/07/06 05:09:56;;;;;;;;;;;;;;;16.16;82.78;92998.72;2039183;70;20044;-79
2023/07/06 05:12:21;;;;;;;;;;;;;;;16.51;81.33;92992.44;2039522;70;20051;-78
2023/07/06 05:14:47;;;;;;;;;;;;;;;16.41;82.01;92997.69;2039497;70;20074;-78
2023/07/06 05:17:13;;;;;;;;;;;;;;;16.54;81.34;92996.84;2039496;70;20126;-78
2023/07/06 05:19:38;;;;;;;;;;;;;;;16.76;80.75;93000.66;2038811;70;20063;-78
2023/07/06 05:22:04;;;;;;;;;;;;;;;16.79;79.93;93003.59;2039592;69;20058;-77
2023/07/06 05:24:30;;;;;;;;;;;;;;;16.82;80.09;93003.06;2039470;69;20052;-79
2023/07/06 05:26:55;;;;;;;;;;;;;;;16.88;79.75;92999.72;2039444;69;20048;-79
2023/07/06 05:29:20;;;;;;;;;;;;;;;16.91;79.77;93009.81;2039646;70;20468;-80
2023/07/06 05:31:48;;;;;;;;;;;;;;;16.88;80.32;93005.41;2039494;70;20087;-80
2023/07/06 05:34:13;;;;;;;;;;;;;;;16.82;80.31;92994.53;2039314;69;20052;-80
2023/07/06 05:36:39;;;;;;;;;;;;;;;16.84;80.34;92988.91;2039469;70;20073;-80
2023/07/06 05:39:05;;;;;;;;;;;;;;;16.96;79.73;92997.97;2039359;69;20056;-80
2023/07/06 05:41:32;;;;;;;;;;;;;;;17.01;79.79;93001.72;2039315;70;20052;-80
2023/07/06 05:43:58;;;;;;;;;;;;;;;17.08;79.97;93008.38;2038597;70;20048;-79
2023/07/06 05:46:24;;;;;;;;;;;;;;;17.11;80.27;93007.81;2039534;70;20396;-78
2023/07/06 05:48:50;;;;;;;;;;;;;;;16.80;79.87;93008.63;2039334;69;20138;-78
2023/07/06 05:51:15;;;;;;;;;;;;;;;16.74;80.44;93008.38;2039408;70;20048;-78
2023/07/06 05:53:41;;;;;;;;;;;;;;;16.74;80.71;93009.13;2039407;69;20501;-78
2023/07/06 05:56:06;;;;;;;;;;;;;;;16.93;79.89;93016.31;2039382;70;20070;-79
2023/07/06 05:58:32;;;;;;;;;;;;;;;17.08;79.59;93016.91;2038850;70;20494;-78
2023/07/06 06:00:59;;;;;;;;;;;;;;;17.17;79.71;93027.97;2041595;70;20059;-79
2023/07/06 06:03:25;;;;;;;;;;;;;;;16.95;78.74;93015.66;2039452;70;20044;-78
2023/07/06 06:05:52;;;;;;;;;;;;;;;16.65;81.05;93026.44;2040116;69;20078;-79
2023/07/06 06:08:18;;;;;;;;;;;;;;;16.47;81.67;93029.94;2039844;69;20112;-79
2023/07/06 06:10:44;;;;;;;;;;;;;;;16.04;84.53;93035.81;2039382;70;20576;-80
2023/07/06 06:13:10;;;;;;;;;;;;;;;16.79;81.68;93034.88;2039503;70;20049;-81
2023/07/06 06:15:36;;;;;;;;;;;;;;;16.51;80.36;93027.28;2039380;70;20051;-80
2023/07/06 06:18:02;;;;;;;;;;;;;;;16.81;81.00;93034.97;2038872;70;20117;-80
2023/07/06 06:20:30;;;;;;;;;;;;;;;17.17;79.23;93035.78;2051967;70;20051;-80
2023/07/06 06:22:57;;;;;;;;;;;;;;;17.13;78.18;93027.78;2038721;69;20075;-81
2023/07/06 06:25:23;;;;;;;;;;;;;;;16.57;80.97;93023.97;2041424;70;20151;-78
2023/07/06 06:27:48;;;;;;;;;;;;;;;16.79;80.46;93034.88;2039034;69;20491;-77
2023/07/06 06:30:15;;;;;;;;;;;;;;;17.26;78.44;93032.63;2039348;70;20051;-80
2023/07/06 06:32:40;;;;;;;;;;;;;;;17.36;77.16;93034.41;2039242;70;20110;-82
2023/07/06 06:35:27;;;;;;;;;;;;;;;17.66;76.82;93035.66;2039164;69;20083;-79
2023/07/06 06:37:54;;;;;;;;;;;;;;;17.84;76.60;93029.25;2039315;70;20488;-79
2023/07/06 06:40:20;;;;;;;;;;;;;;;17.60;75.07;93026.16;2039259;70;20048;-79
2023/07/06 06:42:48;;;;;;;;;;;;;;;17.15;76.76;93036.44;2039068;70;20054;-80
2023/07/06 06:45:14;;;;;;;;;;;;;;;17.68;75.93;93035.00;2039073;70;20122;-79
2023/07/06 06:47:39;;;;;;;;;;;;;;;17.91;74.74;93036.63;2039187;70;20044;-79
2023/07/06 06:50:08;;;;;;;;;;;;;;;17.25;75.47;93041.81;2039107;69;20135;-80
2023/07/06 06:52:34;;;;;;;;;;;;;;;17.66;75.84;93040.63;2039201;70;20052;-79
2023/07/06 06:55:00;;;;;;;;;;;;;;;17.77;73.13;93051.03;2039262;69;20048;-79
2023/07/06 06:57:25;;;;;;;;;;;;;;;17.89;72.97;93053.66;2038730;70;20048;-80
2023/07/06 06:59:53;;;;;;;;;;;;;;;18.13;72.48;93048.16;2039154;70;20495;-79
2023/07/06 07:02:19;;;;;;;;;;;;;;;18.14;72.43;93047.50;2039183;69;20059;-80
2023/07/06 07:04:44;;;;;;;;;;;;;;;18.19;72.34;93045.53;2039118;70;20427;-80
2023/07/06 07:07:10;;;;;;;;;;;;;;;18.22;72.61;93038.53;2039403;69;20049;-80
2023/07/06 07:09:36;;;;;;;;;;;;;;;18.27;70.84;93037.28;2039146;70;20056;-80
2023/07/06 07:12:02;;;;;;;;;;;;;;;18.09;71.10;93028.06;2039152;69;20098;-80
2023/07/06 07:14:28;;;;;;;;;;;;;;;18.35;71.11;93020.50;2039154;70;20084;-80
2023/07/06 07:16:55;;;;;;;;;;;;;;;17.28;75.84;93018.50;2039247;69;20055;-79
2023/07/06 07:19:21;;;;;;;;;;;;;;;17.39;75.88;93008.25;2039325;70;20480;-81
2023/07/06 07:21:47;;;;;;;;;;;;;;;17.49;74.43;93002.94;2041579;70;20554;-80
2023/07/06 07:24:13;;;;;;;;;;;;;;;18.14;73.95;93004.75;2039396;70;20139;-80
2023/07/06 07:26:38;;;;;;;;;;;;;;;17.73;73.31;93002.44;2039328;70;20207;-79
2023/07/06 07:29:04;;;;;;;;;;;;;;;18.43;72.16;93003.72;2039054;70;20048;-79
2023/07/06 07:31:29;;;;;;;;;;;;;;;18.57;71.71;93000.63;2038948;70;20063;-80
2023/07/06 07:33:55;;;;;;;;;;;;;;;18.16;71.01;92999.16;2039255;70;20126;-80
2023/07/06 07:36:21;;;;;;;;;;;;;;;18.56;71.71;93002.03;2039455;70;20048;-79
2023/07/06 07:38:47;;;;;;;;;;;;;;;18.58;70.54;92999.25;2039459;70;20166;-79
2023/07/06 07:41:18;;;;;;;;;;;;;;;18.86;68.98;93005.25;2039935;69;20248;-79
2023/07/06 07:43:46;;;;;;;;;;;;;;;19.37;69.48;93003.38;2039480;70;20098;-79
2023/07/06 07:46:12;;;;;;;;;;;;;;;18.57;71.40;93002.75;2039379;70;20093;-80
2023/07/06 07:48:40;;;;;;;;;;;;;;;18.28;71.13;93005.31;2039212;70;20056;-80
2023/07/06 07:51:07;;;;;;;;;;;;;;;18.71;70.49;93014.69;2039313;70;20060;-80
2023/07/06 07:53:34;;;;;;;;;;;;;;;18.15;70.79;93011.22;2039341;69;20055;-78
2023/07/06 07:56:00;;;;;;;;;;;;;;;18.67;68.53;93001.00;2039260;70;20519;-79
2023/07/06 07:58:26;;;;;;;;;;;;;;;18.32;70.07;93009.69;2039329;70;20083;-80
2023/07/06 08:00:57;;;;;;;;;;;;;;;18.12;69.88;93007.53;2039306;70;20088;-81
2023/07/06 08:03:23;;;;;;;;;;;;;;;18.94;68.90;93004.81;2039649;70;20060;-80
2023/07/06 08:05:52;;;;;;;;;;;;;;;19.19;67.74;93006.34;2039325;70;20052;-89
2023/07/06 08:08:18;;;;;;;;;;;;;;;19.54;65.45;92997.53;2039669;70;20047;-89
2023/07/06 08:10:45;;;;;;;;;;;;;;;19.60;68.46;93001.97;2039548;70;20527;-80
2023/07/06 08:13:10;;;;;;;;;;;;;;;19.60;66.38;93001.97;2039326;69;20044;-81
2023/07/06 08:15:37;;;;;;;;;;;;;;;19.59;65.04;93000.53;2039270;70;20071;-81
2023/07/06 08:18:03;;;;;;;;;;;;;;;19.86;65.35;92996.41;2039249;70;20154;-82
2023/07/06 08:20:29;;;;;;;;;;;;;;;19.76;67.37;92996.81;2039095;69;20205;-80
2023/07/06 08:22:57;;;;;;;;;;;;;;;20.37;66.93;92997.94;2039319;69;20060;-80
2023/07/06 08:25:23;;;;;;;;;;;;;;;20.77;64.96;92998.38;2039257;70;20054;-79
2023/07/06 08:27:48;;;;;;;;;;;;;;;20.90;63.09;92993.75;2041407;69;20075;-78
2023/07/06 08:30:14;;;;;;;;;;;;;;;20.61;64.33;92995.78;2039249;70;20484;-85
2023/07/06 08:32:39;;;;;;;;;;;;;;;20.78;63.43;92991.25;2038976;70;20155;-82
2023/07/06 08:35:05;;;;;;;;;;;;;;;21.91;60.76;92998.44;2041327;69;20051;-80
2023/07/06 08:37:30;;;;;;;;;;;;;;;21.35;59.23;92998.53;2039275;70;20099;-79
2023/07/06 08:39:57;;;;;;;;;;;;;;;22.32;57.51;92994.38;2039225;70;20574;-78
2023/07/06 08:42:22;;;;;;;;;;;;;;;23.03;57.13;92989.38;2039298;70;20056;-78
2023/07/06 08:44:53;;;;;;;;;;;;;;;22.51;56.05;92992.63;2039365;70;20063;-78
2023/07/06 08:47:18;;;;;;;;;;;;;;;22.58;55.84;92991.34;2039628;70;20064;-81
2023/07/06 08:49:44;;;;;;;;;;;;;;;23.06;56.12;92987.28;2039664;69;20508;-78
2023/07/06 08:52:11;;;;;;;;;;;;;;;23.03;55.08;92986.50;2041896;70;20063;-80
2023/07/06 08:54:41;;;;;;;;;;;;;;;23.01;55.35;92986.50;2039671;69;20079;-78
2023/07/06 08:57:15;;;;;;;;;;;;;;;23.11;54.35;92990.97;2039651;69;20076;-80
2023/07/06 08:59:42;;;;;;;;;;;;;;;22.45;53.30;92989.66;2039802;70;20052;-79
2023/07/06 09:02:19;;;;;;;;;;;;;;;23.00;53.42;92995.78;2039662;70;20106;-79
2023/07/06 09:04:46;;;;;;;;;;;;;;;23.22;52.14;92983.97;2039505;70;20388;-79
2023/07/06 09:07:14;;;;;;;;;;;;;;;22.91;51.64;92976.94;2039823;70;20056;-79
2023/07/06 09:09:41;;;;;;;;;;;;;;;22.20;52.85;92984.78;2039702;70;20453;-79
2023/07/06 09:12:17;;;;;;;;;;;;;;;21.81;55.11;92984.63;2040448;70;20075;-79
2023/07/06 09:14:43;;;;;;;;;;;;;;;22.80;52.40;92985.31;2040651;70;20139;-79
2023/07/06 09:17:15;;;;;;;;;;;;;;;22.70;53.48;92985.13;2039766;70;20518;-79
2023/07/06 09:19:40;;;;;;;;;;;;;;;21.86;54.06;92982.56;2039632;70;20052;-79
2023/07/06 09:22:09;;;;;;;;;;;;;;;22.47;53.30;92983.22;2039575;69;20143;-79
2023/07/06 09:24:34;;;;;;;;;;;;;;;22.52;52.41;92987.63;2039494;70;20051;-77
2023/07/06 09:27:08;;;;;;;;;;;;;;;22.06;53.83;92985.16;2039478;70;20048;-80
2023/07/06 09:29:34;;;;;;;;;;;;;;;21.80;54.06;92985.28;2039486;70;20056;-79
2023/07/06 09:32:24;;;;;;;;;;;;;;;21.55;53.90;92981.84;2039524;70;20102;-81
2023/07/06 09:34:51;;;;;;;;;;;;;;;21.29;53.52;92981.16;2039295;70;20146;-80
2023/07/06 09:37:19;;;;;;;;;;;;;;;21.09;55.18;92981.38;2039467;70;20527;-83
2023/07/06 09:40:05;;;;;;;;;;;;;;;21.71;54.69;92977.91;2039296;69;20472;-83
2023/07/06 09:42:31;;;;;;;;;;;;;;;21.94;56.86;92973.41;2041447;70;20063;-81
2023/07/06 09:44:56;;;;;;;;;;;;;;;22.38;58.18;92967.97;2039299;70;20056;-81
2023/07/06 09:47:22;;;;;;;;;;;;;;;23.38;57.21;92961.31;2039349;70;20476;-81
2023/07/06 09:49:52;;;;;;;;;;;;;;;24.19;54.58;92961.13;2039179;70;20103;-79
2023/07/06 09:52:19;;;;;;;;;;;;;;;24.67;52.39;92957.50;2039366;70;20052;-79
2023/07/06 09:54:46;;;;;;;;;;;;;;;25.23;50.52;92948.03;2035287;70;20059;-79
2023/07/06 09:57:13;;;;;;;;;;;;;;;25.47;50.37;92948.28;2035953;70;20076;-80
2023/07/06 09:59:41;;;;;;;;;;;;;;;25.78;47.52;92952.16;2036111;70;20531;-81
2023/07/06 10:02:10;;;;;;;;;;;;;;;26.60;47.03;92955.59;2036128;70;20076;-80
2023/07/06 10:04:54;;;;;;;;;;;;;;;26.52;43.87;92961.34;2036005;70;20045;-79
2023/07/06 10:07:23;;;;;;;;;;;;;;;27.59;44.53;92952.31;2036135;70;20052;-81
2023/07/06 10:09:55;;;;;;;;;;;;;;;27.91;41.24;92950.91;2051560;69;20114;-78
2023/07/06 10:12:40;;;;;;;;;;;;;;;28.26;41.04;92936.41;2036114;70;20050;-84
2023/07/06 10:15:12;;;;;;;;;;;;;;;28.66;40.60;92938.50;2033460;70;20053;-79
2023/07/06 10:17:42;;;;;;;;;;;;;;;28.74;40.62;92944.25;2036097;69;20143;-81
2023/07/06 10:20:18;;;;;;;;;;;;;;;28.82;41.32;92944.25;2035412;70;20064;-80
2023/07/06 10:23:04;;;;;;;;;;;;;;;28.60;41.34;92944.31;2036460;69;20115;-77
2023/07/06 10:25:42;;;;;;;;;;;;;;;27.60;42.50;92944.38;2039029;70;20089;-81
2023/07/06 10:28:14;;;;;;;;;;;;;;;29.15;39.36;92944.13;2038823;70;20396;-79
2023/07/06 10:30:46;;;;;;;;;;;;;;;28.76;39.50;92932.66;2038854;70;20056;-79
2023/07/06 10:33:15;;;;;;;;;;;;;;;30.44;37.68;92932.31;2038815;70;20114;-79
2023/07/06 10:35:47;;;;;;;;;;;;;;;31.13;35.41;92939.53;2038539;70;20060;-81
2023/07/06 10:38:13;;;;;;;;;;;;;;;32.07;34.72;92938.19;2039200;70;20048;-80
2023/07/06 10:40:39;;;;;;;;;;;;;;;33.06;32.62;92938.63;2038960;70;20048;-80
2023/07/06 10:43:07;;;;;;;;;;;;;;;31.92;32.56;92931.19;2039490;70;20431;-79
2023/07/06 10:45:32;;;;;;;;;;;;;;;33.63;29.25;92930.84;2039460;70;20435;-80
2023/07/06 10:48:10;;;;;;;;;;;;;;;34.30;29.21;92925.66;2039723;69;20048;-78
2023/07/06 10:50:56;;;;;;;;;;;;;;;37.38;27.98;92934.50;2039269;70;20056;-83
2023/07/06 10:53:32;;;;;;;;;;;;;;;38.34;25.27;92933.72;2037691;70;20052;-79
2023/07/06 10:56:01;;;;;;;;;;;;;;;38.80;25.04;92924.47;2039332;70;20078;-78
2023/07/06 10:58:27;;;;;;;;;;;;;;;39.82;22.31;92922.91;2039376;70;20141;-81
2023/07/06 11:00:54;;;;;;;;;;;;;;;41.60;22.69;92928.78;2039392;70;20538;-81
2023/07/06 11:03:31;;;;;;;;;;;;;;;36.98;23.74;92927.88;2039406;70;20045;-82
2023/07/06 11:06:06;;;;;;;;;;;;;;;40.58;21.18;92931.78;2039407;70;20528;-79
2023/07/06 11:08:51;;;;;;;;;;;;;;;41.07;20.87;92926.38;2041472;70;20151;-80
2023/07/06 11:11:18;;;;;;;;;;;;;;;41.42;20.13;92926.81;2039306;70;20080;-79
2023/07/06 11:13:48;;;;;;;;;;;;;;;43.41;18.35;92926.59;2039260;70;20493;-81
2023/07/06 11:16:20;;;;;;;;;;;;;;;43.36;18.43;92925.44;2039400;70;20055;-77
2023/07/06 11:18:48;;;;;;;;;;;;;;;42.18;18.76;92915.25;2039232;70;20180;-81
2023/07/06 11:21:13;;;;;;;;;;;;;;;41.59;20.42;92915.53;2039539;70;20040;-81
2023/07/06 11:23:41;;;;;;;;;;;;;;;42.25;18.60;92921.56;2054986;69;20079;-81
2023/07/06 11:26:13;;;;;;;;;;;;;;;43.34;18.50;92919.63;2039373;70;20075;-79
2023/07/06 11:28:40;;;;;;;;;;;;;;;45.10;18.56;92930.63;2039411;70;20174;-80
2023/07/06 11:31:17;;;;;;;;;;;;;;;46.84;16.98;92927.25;2038967;70;20121;-78
2023/07/06 11:33:50;;;;;;;;;;;;;;;46.92;15.73;92923.66;2037812;70;20124;-77
2023/07/06 11:36:25;;;;;;;;;;;;;;;48.16;15.05;92915.59;2038869;70;20052;-77
2023/07/06 11:38:56;;;;;;;;;;;;;;;48.32;15.78;92917.97;2038997;70;20111;-78
2023/07/06 11:41:53;;;;;;;;;;;;;;;48.75;15.55;92907.84;2038644;70;20122;-78
2023/07/06 18:30:05;;;;;;;;;;;;;;;18.84;64.03;93127.84;2051011;65;20462;-84
2023/07/06 18:32:31;;;;;;;;;;;;;;;18.82;64.59;93136.31;2053188;69;20062;-79
2023/07/06 18:34:56;;;;;;;;;;;;;;;18.50;65.71;93136.50;2054225;69;20512;-82
2023/07/06 18:37:22;;;;;;;;;;;;;;;18.69;65.20;93140.09;2054897;69;20105;-81
2023/07/06 18:39:50;;;;;;;;;;;;;;;18.64;65.61;93144.16;2052925;69;20440;-79
2023/07/06 18:42:17;;;;;;;;;;;;;;;18.83;64.72;93145.59;2051705;70;20504;-81
2023/07/06 18:44:57;;;;;;;;;;;;;;;18.69;65.50;93145.78;2051848;70;20051;-80
2023/07/06 18:47:23;;;;;;;;;;;;;;;18.71;65.79;93140.19;2054046;69;20097;-80
2023/07/06 18:49:49;;;;;;;;;;;;;;;18.67;64.62;93137.88;2052082;69;20546;-81
2023/07/06 18:52:16;;;;;;;;;;;;;;;18.40;65.34;93132.53;2051485;69;20121;-81
2023/07/06 18:54:45;;;;;;;;;;;;;;;18.36;66.93;93132.38;2052010;70;20141;-80
2023/07/06 18:57:12;;;;;;;;;;;;;;;18.40;66.26;93152.50;2051362;70;20051;-80
2023/07/06 18:59:47;;;;;;;;;;;;;;;18.36;67.34;93138.81;2053428;70;20093;-80
2023/07/06 19:02:13;;;;;;;;;;;;;;;18.33;67.31;93147.97;2054954;69;20147;-80
2023/07/06 19:04:40;;;;;;;;;;;;;;;18.32;66.35;93141.50;2054986;69;20066;-79
2023/07/06 19:07:05;;;;;;;;;;;;;;;18.14;66.61;93137.94;2055247;69;20066;-86
2023/07/06 19:09:32;;;;;;;;;;;;;;;18.15;67.68;93150.81;2055549;69;20056;-82
2023/07/06 19:11:57;;;;;;;;;;;;;;;18.04;68.17;93156.09;2052584;69;20143;-82
2023/07/06 19:14:23;;;;;;;;;;;;;;;18.01;68.29;93151.72;2051232;70;20118;-83
2023/07/06 19:16:48;;;;;;;;;;;;;;;18.07;65.34;93144.78;2051329;70;20123;-83
2023/07/06 19:19:14;;;;;;;;;;;;;;;17.76;67.34;93138.59;2050727;69;20073;-81
2023/07/06 19:21:39;;;;;;;;;;;;;;;17.95;67.37;93147.88;2051728;70;20058;-80
2023/07/06 19:24:05;;;;;;;;;;;;;;;17.89;67.49;93145.50;2051262;69;20083;-79
2023/07/06 19:26:31;;;;;;;;;;;;;;;17.95;67.23;93153.56;2051860;69;20098;-80
2023/07/06 19:28:56;;;;;;;;;;;;;;;17.91;67.23;93151.28;2051646;69;20047;-81
2023/07/06 19:31:22;;;;;;;;;;;;;;;17.81;67.40;93153.72;2053761;69;20138;-81
2023/07/06 19:33:47;;;;;;;;;;;;;;;17.49;68.29;93161.59;2051478;69;20155;-79
2023/07/06 19:36:13;;;;;;;;;;;;;;;17.58;67.84;93174.06;2053874;70;20085;-80
2023/07/06 19:38:39;;;;;;;;;;;;;;;17.36;68.48;93166.03;2051825;69;20051;-81